CCGS Neocaligus — CG7677 — position and weather

sailwx.info

Track history (hours):
 
Tides and Currents Weather Stations Pressure Air Temp Water Temp Dewpoint Dewpoint Depression Visibility Wind Speed Wind Dir Waves Ship Positions

CCGS Neocaligus

Last reported at 2017-Nov-16 20:31 UTC. Time now 2017-Nov-18 12:20 UTC.
Position N 49°05' W 123°32'.

Length 23 m; draft 3.5 m.

Type: SAR. MMSI: 316001759.

Date/timePositionNaut miles runAvg speedWind from/ knotsBaromVisibWave heightAir tempDewpointWater temp
2017-Nov-16 20:31N 49°05' W 123°32'110.2
2017-Nov-16 20:24N 49°05' W 123°30'410.2
2017-Nov-16 19:59N 49°01' W 123°26'5 8.2
2017-Nov-16 19:23N 48°58' W 123°20'4 9.6
2017-Nov-16 19:00N 48°55' W 123°17'1 1.6
2017-Nov-16 18:29N 48°55' W 123°16'2 3.8
2017-Nov-16 17:58N 48°56' W 123°14'4 7.7
2017-Nov-16 17:30N 48°54' W 123°10'1 2.2
2017-Nov-16 17:00N 48°53' W 123°09'2 3.2
2017-Nov-16 16:30N 48°52' W 123°12'3 3.2
2017-Nov-16 15:42N 48°53' W 123°15'2 8.7
2017-Nov-16 15:29N 48°52' W 123°18'4 7.5
2017-Nov-16 15:00N 48°51' W 123°23'3 5.8
2017-Nov-16 14:26N 48°51' W 123°28'1 2.7
2017-Nov-16 13:59N 48°51' W 123°30'0 0.0
2017-Nov-16 03:33N 48°51' W 123°30'0 0.0
2017-Nov-16 01:39N 48°51' W 123°30'0 0.0
2017-Nov-16 01:12N 48°51' W 123°30'1 4.6
2017-Nov-16 00:58N 48°51' W 123°28'4 9.4
2017-Nov-16 00:30N 48°48' W 123°23'8 5.2
2017-Nov-15 23:01N 48°44' W 123°13'0 4.5
2017-Nov-15 23:00N 48°44' W 123°13'4 7.5
2017-Nov-15 22:28N 48°45' W 123°08'1 2.5
2017-Nov-15 22:00N 48°45' W 123°09'610.0
2017-Nov-15 21:25N 48°40' W 123°15'410.8
2017-Nov-15 21:00N 48°36' W 123°13'611.2
2017-Nov-15 20:30N 48°30' W 123°11'611.2
2017-Nov-15 20:01N 48°25' W 123°11'611.1
2017-Nov-15 19:31N 48°22' W 123°18'510.7
2017-Nov-15 19:00N 48°21' W 123°26'1 2.7
2017-Nov-15 18:30N 48°21' W 123°28'0 0.9
2017-Nov-15 17:58N 48°21' W 123°28'5 9.8
2017-Nov-15 17:30N 48°18' W 123°34'4 8.1
2017-Nov-15 16:59N 48°17' W 123°40'2 2.5
2017-Nov-15 16:18N 48°17' W 123°43'2 8.3
2017-Nov-15 16:00N 48°17' W 123°39'5 9.5
2017-Nov-15 15:30N 48°18' W 123°32'510.0
2017-Nov-15 15:00N 48°22' W 123°28'3 6.3
2017-Nov-15 14:30N 48°24' W 123°24'2 3.4
2017-Nov-15 14:00N 48°26' W 123°22'0 0.0
2017-Nov-15 13:30N 48°26' W 123°22'0 0.0
2017-Nov-15 13:00N 48°26' W 123°22'0 0.0
2017-Nov-15 12:30N 48°26' W 123°22'0 0.0
2017-Nov-15 12:00N 48°26' W 123°22'0 0.0
2017-Nov-15 11:30N 48°26' W 123°22'0 0.0
2017-Nov-15 11:00N 48°26' W 123°22'0 0.0
2017-Nov-15 10:30N 48°26' W 123°22'0 0.0
2017-Nov-15 10:00N 48°26' W 123°22'0 0.0
2017-Nov-15 09:30N 48°26' W 123°22'0 0.0
2017-Nov-15 09:00N 48°26' W 123°22'0 0.0
2017-Nov-15 08:30N 48°26' W 123°22'0 0.0
2017-Nov-15 08:00N 48°26' W 123°22'0 0.0
2017-Nov-15 07:30N 48°26' W 123°22'0 0.0
2017-Nov-15 07:00N 48°26' W 123°22'0 0.0
2017-Nov-15 06:30N 48°26' W 123°22'0 0.0
2017-Nov-15 06:00N 48°26' W 123°22'0 0.0
2017-Nov-15 05:30N 48°26' W 123°22'0 0.0
2017-Nov-15 05:00N 48°26' W 123°22'0 0.0
2017-Nov-15 04:30N 48°26' W 123°22'0 0.0
2017-Nov-15 04:00N 48°26' W 123°22'0 0.0
2017-Nov-15 03:30N 48°26' W 123°22'0 0.0
2017-Nov-15 03:00N 48°26' W 123°22'0 0.0
2017-Nov-15 02:30N 48°26' W 123°22'0 0.0
2017-Nov-15 02:00N 48°26' W 123°22'0 0.0
2017-Nov-15 01:30N 48°26' W 123°22'0 0.0
2017-Nov-15 01:00N 48°26' W 123°22'0 0.0
2017-Nov-15 00:30N 48°26' W 123°22'0 0.2
2017-Nov-15 00:00N 48°26' W 123°22'3 6.0
2017-Nov-14 23:30N 48°23' W 123°25'4 7.6
2017-Nov-14 23:00N 48°20' W 123°28'3 6.9
2017-Nov-14 22:30N 48°18' W 123°33'9 5.8
2017-Nov-14 21:01N 48°19' W 123°46'0 9.0
2017-Nov-14 21:00N 48°19' W 123°45'7 6.7
2017-Nov-14 20:01N 48°20' W 123°55'1 8.5
2017-Nov-14 19:53N 48°21' W 123°57'1 3.3
2017-Nov-14 19:29N 48°21' W 123°59'1 2.4
2017-Nov-14 19:00N 48°22' W 124°00'2 5.0
2017-Nov-14 18:30N 48°22' W 124°04'2 3.1
2017-Nov-14 18:01N 48°23' W 124°06'2 3.0
2017-Nov-14 17:30N 48°23' W 124°08'2 3.5
2017-Nov-14 17:00N 48°24' W 124°10'5 9.5
2017-Nov-14 16:30N 48°27' W 124°16'5 9.7
2017-Nov-14 16:01N 48°29' W 124°23'5 9.2
2017-Nov-14 15:30N 48°31' W 124°29'3 6.5
2017-Nov-14 15:00N 48°33' W 124°25'0 0.4
2017-Nov-14 14:30N 48°33' W 124°25'0 0.0
2017-Nov-14 14:00N 48°33' W 124°25'0 0.0
2017-Nov-14 13:30N 48°33' W 124°25'0 0.0
2017-Nov-14 13:00N 48°33' W 124°25'0 0.0
2017-Nov-14 12:30N 48°33' W 124°25'0 0.0
2017-Nov-14 12:00N 48°33' W 124°25'0 0.0
2017-Nov-14 11:30N 48°33' W 124°25'0 0.0
2017-Nov-14 11:00N 48°33' W 124°25'0 0.0
2017-Nov-14 10:30N 48°33' W 124°25'0 0.0
2017-Nov-14 10:00N 48°33' W 124°25'0 0.0
2017-Nov-14 09:30N 48°33' W 124°25'0 0.0
2017-Nov-14 09:00N 48°33' W 124°25'0 0.0
2017-Nov-14 08:30N 48°33' W 124°25'0 0.0
2017-Nov-14 08:00N 48°33' W 124°25'0 0.0
2017-Nov-14 07:30N 48°33' W 124°25'0 0.0
2017-Nov-14 07:00N 48°33' W 124°25'0 0.0
2017-Nov-14 06:30N 48°33' W 124°25'0 0.0
2017-Nov-14 06:00N 48°33' W 124°25'0 0.0
2017-Nov-14 05:30N 48°33' W 124°25'0 0.0
2017-Nov-14 05:00N 48°33' W 124°25'0 0.0
2017-Nov-14 04:30N 48°33' W 124°25'0 0.0
2017-Nov-14 04:00N 48°33' W 124°25'0 0.0
2017-Nov-14 03:30N 48°33' W 124°25'0 0.0
2017-Nov-14 02:58N 48°33' W 124°25'0 0.0
2017-Nov-14 02:30N 48°33' W 124°25'0 0.0
2017-Nov-14 02:00N 48°33' W 124°25'0 0.0
2017-Nov-14 01:30N 48°33' W 124°25'0 0.0
2017-Nov-14 01:00N 48°33' W 124°25'0 0.0
2017-Nov-14 00:30N 48°33' W 124°25'0 0.0
2017-Nov-14 00:00N 48°33' W 124°25'0 0.0
2017-Nov-13 23:30N 48°33' W 124°25'0 0.0
2017-Nov-13 23:00N 48°33' W 124°25'0 0.0
2017-Nov-13 22:30N 48°33' W 124°25'0 0.0
2017-Nov-13 22:00N 48°33' W 124°25'0 0.0
2017-Nov-13 01:59N 48°33' W 124°25'0 0.0
2017-Nov-13 01:30N 48°33' W 124°25'0 0.0
2017-Nov-13 00:59N 48°33' W 124°25'0 0.6
2017-Nov-13 00:28N 48°33' W 124°25'3 5.5
2017-Nov-13 00:00N 48°32' W 124°29'4 7.5
2017-Nov-12 23:30N 48°32' W 124°34'2 3.2
2017-Nov-12 23:00N 48°32' W 124°36'1 2.3
2017-Nov-12 22:30N 48°33' W 124°38'2 3.7
2017-Nov-12 22:00N 48°33' W 124°41'1 3.0
2017-Nov-12 21:30N 48°33' W 124°43'1 1.8
2017-Nov-12 21:00N 48°33' W 124°42'1 2.2
2017-Nov-12 20:31N 48°32' W 124°43'1 2.2
2017-Nov-12 20:00N 48°32' W 124°45'1 2.7
2017-Nov-12 19:29N 48°32' W 124°43'2 3.6
2017-Nov-12 19:00N 48°32' W 124°40'1 1.9
2017-Nov-12 18:30N 48°31' W 124°39'0 0.6
2017-Nov-12 18:00N 48°31' W 124°38'4 8.2
2017-Nov-12 17:30N 48°30' W 124°33'4 8.6
2017-Nov-12 17:00N 48°28' W 124°27'4 8.6
2017-Nov-12 16:31N 48°27' W 124°21'5 8.9
2017-Nov-12 15:56N 48°25' W 124°13'4 9.1
2017-Nov-12 15:30N 48°24' W 124°08'5 9.8
2017-Nov-12 15:00N 48°22' W 124°01'510.3
2017-Nov-12 14:29N 48°21' W 123°53'510.2
2017-Nov-12 14:00N 48°20' W 123°46'5 9.5
2017-Nov-12 13:30N 48°18' W 123°39'2 0.8
2017-Nov-12 11:02N 48°20' W 123°37'0 0.0
2017-Nov-12 10:59N 48°20' W 123°37'0 0.0
2017-Nov-12 08:59N 48°20' W 123°37'0 0.0
2017-Nov-12 08:26N 48°20' W 123°37'0 0.0
2017-Nov-12 07:56N 48°20' W 123°37'0 0.0
2017-Nov-12 07:14N 48°20' W 123°37'0 0.0
2017-Nov-12 05:26N 48°20' W 123°37'0 0.0
2017-Nov-12 02:21N 48°20' W 123°37'1 3.4
2017-Nov-12 01:57N 48°19' W 123°37'4 8.9
2017-Nov-12 01:30N 48°17' W 123°31'510.4
2017-Nov-12 00:59N 48°18' W 123°23'2 3.4
2017-Nov-12 00:30N 48°17' W 123°21'1 2.0
2017-Nov-12 00:01N 48°18' W 123°20'3 5.7
2017-Nov-11 23:31N 48°19' W 123°16'1 2.5
2017-Nov-11 23:00N 48°20' W 123°14'2 3.3
2017-Nov-11 22:29N 48°21' W 123°14'611.8
2017-Nov-11 22:00N 48°27' W 123°13'611.1
2017-Nov-11 21:30N 48°32' W 123°16'1610.3
2017-Nov-11 20:00N 48°47' W 123°22'5 9.9
2017-Nov-11 19:30N 48°51' W 123°25'5 9.4
2017-Nov-11 18:59N 48°55' W 123°30'22 0.5
2017-Nov-09 17:46N 49°17' W 123°33'3 9.4
2017-Nov-09 17:30N 49°18' W 123°29'5 9.7
2017-Nov-09 17:00N 49°19' W 123°22'2 3.9
2017-Nov-09 16:31N 49°21' W 123°20'2 3.3
2017-Nov-09 16:00N 49°22' W 123°19'0 0.0
2017-Nov-08 23:17N 49°23' W 123°20'1 2.9
2017-Nov-08 23:00N 49°22' W 123°19'1 2.6
2017-Nov-08 22:31N 49°21' W 123°20'2 3.3
2017-Nov-08 22:00N 49°22' W 123°19'610.1
2017-Nov-08 21:27N 49°28' W 123°17'6 1.2
2017-Nov-08 16:11N 49°33' W 123°23'210.2
2017-Nov-08 16:00N 49°32' W 123°26'5 9.8
2017-Nov-08 15:30N 49°27' W 123°28'4 0.3
2017-Nov-08 01:16N 49°24' W 123°30'3 4.5
2017-Nov-08 00:37N 49°26' W 123°28'110.0
2017-Nov-08 00:29N 49°28' W 123°28'5 9.4
2017-Nov-07 23:59N 49°32' W 123°25'6 1.2
2017-Nov-07 19:05N 49°28' W 123°19'1 2.5
2017-Nov-07 18:49N 49°27' W 123°18'2 6.7
2017-Nov-07 18:30N 49°25' W 123°19'2 4.5
2017-Nov-07 18:00N 49°25' W 123°16'1 2.7
2017-Nov-07 17:30N 49°25' W 123°14'4 8.1
2017-Nov-07 17:00N 49°22' W 123°18'2 4.1
2017-Nov-07 16:30N 49°21' W 123°20'0 0.7
2017-Nov-07 16:00N 49°21' W 123°20'4 7.3
2017-Nov-07 15:30N 49°23' W 123°16'3 1.4
2017-Nov-07 13:34N 49°23' W 123°20'0 0.0
2017-Nov-07 03:28N 49°23' W 123°20'0 0.0
2017-Nov-07 02:52N 49°23' W 123°20'0 0.0
2017-Nov-07 02:28N 49°23' W 123°20'0 0.0
2017-Nov-06 23:52N 49°23' W 123°20'0 0.0
2017-Nov-06 23:16N 49°23' W 123°20'1 3.8
2017-Nov-06 23:00N 49°23' W 123°19'2 3.2
2017-Nov-06 22:29N 49°23' W 123°16'0 0.8
2017-Nov-06 22:00N 49°23' W 123°17'1 2.0
2017-Nov-06 21:30N 49°22' W 123°18'3 5.5
2017-Nov-06 21:00N 49°20' W 123°21'  
Track history (hours):
 
Tides and Currents Weather Stations Pressure Air Temp Water Temp Dewpoint Dewpoint Depression Visibility Wind Speed Wind Dir Waves Ship Positions

CCGS Neocaligus

Last reported at 2017-Nov-16 20:31 UTC. Time now 2017-Nov-18 12:20 UTC.
Position N 49°05' W 123°32'.

Length 23 m; draft 3.5 m.

Type: SAR. MMSI: 316001759.

Date/timePositionNaut miles runAvg speedWind from/ knotsBaromVisibWave heightAir tempDewpointWater temp
2017-Nov-16 20:31N 49°05' W 123°32'110.2
2017-Nov-16 20:24N 49°05' W 123°30'410.2
2017-Nov-16 19:59N 49°01' W 123°26'5 8.2
2017-Nov-16 19:23N 48°58' W 123°20'4 9.6
2017-Nov-16 19:00N 48°55' W 123°17'1 1.6
2017-Nov-16 18:29N 48°55' W 123°16'2 3.8
2017-Nov-16 17:58N 48°56' W 123°14'4 7.7
2017-Nov-16 17:30N 48°54' W 123°10'1 2.2
2017-Nov-16 17:00N 48°53' W 123°09'2 3.2
2017-Nov-16 16:30N 48°52' W 123°12'3 3.2
2017-Nov-16 15:42N 48°53' W 123°15'2 8.7
2017-Nov-16 15:29N 48°52' W 123°18'4 7.5
2017-Nov-16 15:00N 48°51' W 123°23'3 5.8
2017-Nov-16 14:26N 48°51' W 123°28'1 2.7
2017-Nov-16 13:59N 48°51' W 123°30'0 0.0
2017-Nov-16 03:33N 48°51' W 123°30'0 0.0
2017-Nov-16 01:39N 48°51' W 123°30'0 0.0
2017-Nov-16 01:12N 48°51' W 123°30'1 4.6
2017-Nov-16 00:58N 48°51' W 123°28'4 9.4
2017-Nov-16 00:30N 48°48' W 123°23'8 5.2
2017-Nov-15 23:01N 48°44' W 123°13'0 4.5
2017-Nov-15 23:00N 48°44' W 123°13'4 7.5
2017-Nov-15 22:28N 48°45' W 123°08'1 2.5
2017-Nov-15 22:00N 48°45' W 123°09'610.0
2017-Nov-15 21:25N 48°40' W 123°15'410.8
2017-Nov-15 21:00N 48°36' W 123°13'611.2
2017-Nov-15 20:30N 48°30' W 123°11'611.2
2017-Nov-15 20:01N 48°25' W 123°11'611.1
2017-Nov-15 19:31N 48°22' W 123°18'510.7
2017-Nov-15 19:00N 48°21' W 123°26'1 2.7
2017-Nov-15 18:30N 48°21' W 123°28'0 0.9
2017-Nov-15 17:58N 48°21' W 123°28'5 9.8
2017-Nov-15 17:30N 48°18' W 123°34'4 8.1
2017-Nov-15 16:59N 48°17' W 123°40'2 2.5
2017-Nov-15 16:18N 48°17' W 123°43'2 8.3
2017-Nov-15 16:00N 48°17' W 123°39'5 9.5
2017-Nov-15 15:30N 48°18' W 123°32'510.0
2017-Nov-15 15:00N 48°22' W 123°28'3 6.3
2017-Nov-15 14:30N 48°24' W 123°24'2 3.4
2017-Nov-15 14:00N 48°26' W 123°22'0 0.0
2017-Nov-15 13:30N 48°26' W 123°22'0 0.0
2017-Nov-15 13:00N 48°26' W 123°22'0 0.0
2017-Nov-15 12:30N 48°26' W 123°22'0 0.0
2017-Nov-15 12:00N 48°26' W 123°22'0 0.0
2017-Nov-15 11:30N 48°26' W 123°22'0 0.0
2017-Nov-15 11:00N 48°26' W 123°22'0 0.0
2017-Nov-15 10:30N 48°26' W 123°22'0 0.0
2017-Nov-15 10:00N 48°26' W 123°22'0 0.0
2017-Nov-15 09:30N 48°26' W 123°22'0 0.0
2017-Nov-15 09:00N 48°26' W 123°22'0 0.0
2017-Nov-15 08:30N 48°26' W 123°22'0 0.0
2017-Nov-15 08:00N 48°26' W 123°22'0 0.0
2017-Nov-15 07:30N 48°26' W 123°22'0 0.0
2017-Nov-15 07:00N 48°26' W 123°22'0 0.0
2017-Nov-15 06:30N 48°26' W 123°22'0 0.0
2017-Nov-15 06:00N 48°26' W 123°22'0 0.0
2017-Nov-15 05:30N 48°26' W 123°22'0 0.0
2017-Nov-15 05:00N 48°26' W 123°22'0 0.0
2017-Nov-15 04:30N 48°26' W 123°22'0 0.0
2017-Nov-15 04:00N 48°26' W 123°22'0 0.0
2017-Nov-15 03:30N 48°26' W 123°22'0 0.0
2017-Nov-15 03:00N 48°26' W 123°22'0 0.0
2017-Nov-15 02:30N 48°26' W 123°22'0 0.0
2017-Nov-15 02:00N 48°26' W 123°22'0 0.0
2017-Nov-15 01:30N 48°26' W 123°22'0 0.0
2017-Nov-15 01:00N 48°26' W 123°22'0 0.0
2017-Nov-15 00:30N 48°26' W 123°22'0 0.2
2017-Nov-15 00:00N 48°26' W 123°22'3 6.0
2017-Nov-14 23:30N 48°23' W 123°25'4 7.6
2017-Nov-14 23:00N 48°20' W 123°28'3 6.9
2017-Nov-14 22:30N 48°18' W 123°33'9 5.8
2017-Nov-14 21:01N 48°19' W 123°46'0 9.0
2017-Nov-14 21:00N 48°19' W 123°45'7 6.7
2017-Nov-14 20:01N 48°20' W 123°55'1 8.5
2017-Nov-14 19:53N 48°21' W 123°57'1 3.3
2017-Nov-14 19:29N 48°21' W 123°59'1 2.4
2017-Nov-14 19:00N 48°22' W 124°00'2 5.0
2017-Nov-14 18:30N 48°22' W 124°04'2 3.1
2017-Nov-14 18:01N 48°23' W 124°06'2 3.0
2017-Nov-14 17:30N 48°23' W 124°08'2 3.5
2017-Nov-14 17:00N 48°24' W 124°10'5 9.5
2017-Nov-14 16:30N 48°27' W 124°16'5 9.7
2017-Nov-14 16:01N 48°29' W 124°23'5 9.2
2017-Nov-14 15:30N 48°31' W 124°29'3 6.5
2017-Nov-14 15:00N 48°33' W 124°25'0 0.4
2017-Nov-14 14:30N 48°33' W 124°25'0 0.0
2017-Nov-14 14:00N 48°33' W 124°25'0 0.0
2017-Nov-14 13:30N 48°33' W 124°25'0 0.0
2017-Nov-14 13:00N 48°33' W 124°25'0 0.0
2017-Nov-14 12:30N 48°33' W 124°25'0 0.0
2017-Nov-14 12:00N 48°33' W 124°25'0 0.0
2017-Nov-14 11:30N 48°33' W 124°25'0 0.0
2017-Nov-14 11:00N 48°33' W 124°25'0 0.0
2017-Nov-14 10:30N 48°33' W 124°25'0 0.0
2017-Nov-14 10:00N 48°33' W 124°25'0 0.0
2017-Nov-14 09:30N 48°33' W 124°25'0 0.0
2017-Nov-14 09:00N 48°33' W 124°25'0 0.0
2017-Nov-14 08:30N 48°33' W 124°25'0 0.0
2017-Nov-14 08:00N 48°33' W 124°25'0 0.0
2017-Nov-14 07:30N 48°33' W 124°25'0 0.0
2017-Nov-14 07:00N 48°33' W 124°25'0 0.0
2017-Nov-14 06:30N 48°33' W 124°25'0 0.0
2017-Nov-14 06:00N 48°33' W 124°25'0 0.0
2017-Nov-14 05:30N 48°33' W 124°25'0 0.0
2017-Nov-14 05:00N 48°33' W 124°25'0 0.0
2017-Nov-14 04:30N 48°33' W 124°25'0 0.0
2017-Nov-14 04:00N 48°33' W 124°25'0 0.0
2017-Nov-14 03:30N 48°33' W 124°25'0 0.0
2017-Nov-14 02:58N 48°33' W 124°25'0 0.0
2017-Nov-14 02:30N 48°33' W 124°25'0 0.0
2017-Nov-14 02:00N 48°33' W 124°25'0 0.0
2017-Nov-14 01:30N 48°33' W 124°25'0 0.0
2017-Nov-14 01:00N 48°33' W 124°25'0 0.0
2017-Nov-14 00:30N 48°33' W 124°25'0 0.0
2017-Nov-14 00:00N 48°33' W 124°25'0 0.0
2017-Nov-13 23:30N 48°33' W 124°25'0 0.0
2017-Nov-13 23:00N 48°33' W 124°25'0 0.0
2017-Nov-13 22:30N 48°33' W 124°25'0 0.0
2017-Nov-13 22:00N 48°33' W 124°25'0 0.0
2017-Nov-13 01:59N 48°33' W 124°25'0 0.0
2017-Nov-13 01:30N 48°33' W 124°25'0 0.0
2017-Nov-13 00:59N 48°33' W 124°25'0 0.6
2017-Nov-13 00:28N 48°33' W 124°25'3 5.5
2017-Nov-13 00:00N 48°32' W 124°29'4 7.5
2017-Nov-12 23:30N 48°32' W 124°34'2 3.2
2017-Nov-12 23:00N 48°32' W 124°36'1 2.3
2017-Nov-12 22:30N 48°33' W 124°38'2 3.7
2017-Nov-12 22:00N 48°33' W 124°41'1 3.0
2017-Nov-12 21:30N 48°33' W 124°43'1 1.8
2017-Nov-12 21:00N 48°33' W 124°42'1 2.2
2017-Nov-12 20:31N 48°32' W 124°43'1 2.2
2017-Nov-12 20:00N 48°32' W 124°45'1 2.7
2017-Nov-12 19:29N 48°32' W 124°43'2 3.6
2017-Nov-12 19:00N 48°32' W 124°40'1 1.9
2017-Nov-12 18:30N 48°31' W 124°39'0 0.6
2017-Nov-12 18:00N 48°31' W 124°38'4 8.2
2017-Nov-12 17:30N 48°30' W 124°33'4 8.6
2017-Nov-12 17:00N 48°28' W 124°27'4 8.6
2017-Nov-12 16:31N 48°27' W 124°21'5 8.9
2017-Nov-12 15:56N 48°25' W 124°13'4 9.1
2017-Nov-12 15:30N 48°24' W 124°08'5 9.8
2017-Nov-12 15:00N 48°22' W 124°01'510.3
2017-Nov-12 14:29N 48°21' W 123°53'510.2
2017-Nov-12 14:00N 48°20' W 123°46'5 9.5
2017-Nov-12 13:30N 48°18' W 123°39'2 0.8
2017-Nov-12 11:02N 48°20' W 123°37'0 0.0
2017-Nov-12 10:59N 48°20' W 123°37'0 0.0
2017-Nov-12 08:59N 48°20' W 123°37'0 0.0
2017-Nov-12 08:26N 48°20' W 123°37'0 0.0
2017-Nov-12 07:56N 48°20' W 123°37'0 0.0
2017-Nov-12 07:14N 48°20' W 123°37'0 0.0
2017-Nov-12 05:26N 48°20' W 123°37'0 0.0
2017-Nov-12 02:21N 48°20' W 123°37'1 3.4
2017-Nov-12 01:57N 48°19' W 123°37'4 8.9
2017-Nov-12 01:30N 48°17' W 123°31'510.4
2017-Nov-12 00:59N 48°18' W 123°23'2 3.4
2017-Nov-12 00:30N 48°17' W 123°21'1 2.0
2017-Nov-12 00:01N 48°18' W 123°20'3 5.7
2017-Nov-11 23:31N 48°19' W 123°16'1 2.5
2017-Nov-11 23:00N 48°20' W 123°14'2 3.3
2017-Nov-11 22:29N 48°21' W 123°14'611.8
2017-Nov-11 22:00N 48°27' W 123°13'611.1
2017-Nov-11 21:30N 48°32' W 123°16'1610.3
2017-Nov-11 20:00N 48°47' W 123°22'5 9.9
2017-Nov-11 19:30N 48°51' W 123°25'5 9.4
2017-Nov-11 18:59N 48°55' W 123°30'22 0.5
2017-Nov-09 17:46N 49°17' W 123°33'3 9.4
2017-Nov-09 17:30N 49°18' W 123°29'5 9.7
2017-Nov-09 17:00N 49°19' W 123°22'2 3.9
2017-Nov-09 16:31N 49°21' W 123°20'2 3.3
2017-Nov-09 16:00N 49°22' W 123°19'0 0.0
2017-Nov-08 23:17N 49°23' W 123°20'1 2.9
2017-Nov-08 23:00N 49°22' W 123°19'1 2.6
2017-Nov-08 22:31N 49°21' W 123°20'2 3.3
2017-Nov-08 22:00N 49°22' W 123°19'610.1
2017-Nov-08 21:27N 49°28' W 123°17'6 1.2
2017-Nov-08 16:11N 49°33' W 123°23'210.2
2017-Nov-08 16:00N 49°32' W 123°26'5 9.8
2017-Nov-08 15:30N 49°27' W 123°28'4 0.3
2017-Nov-08 01:16N 49°24' W 123°30'3 4.5
2017-Nov-08 00:37N 49°26' W 123°28'110.0
2017-Nov-08 00:29N 49°28' W 123°28'5 9.4
2017-Nov-07 23:59N 49°32' W 123°25'6 1.2
2017-Nov-07 19:05N 49°28' W 123°19'1 2.5
2017-Nov-07 18:49N 49°27' W 123°18'2 6.7
2017-Nov-07 18:30N 49°25' W 123°19'2 4.5
2017-Nov-07 18:00N 49°25' W 123°16'1 2.7
2017-Nov-07 17:30N 49°25' W 123°14'4 8.1
2017-Nov-07 17:00N 49°22' W 123°18'2 4.1
2017-Nov-07 16:30N 49°21' W 123°20'0 0.7
2017-Nov-07 16:00N 49°21' W 123°20'4 7.3
2017-Nov-07 15:30N 49°23' W 123°16'3 1.4
2017-Nov-07 13:34N 49°23' W 123°20'0 0.0
2017-Nov-07 03:28N 49°23' W 123°20'0 0.0
2017-Nov-07 02:52N 49°23' W 123°20'0 0.0
2017-Nov-07 02:28N 49°23' W 123°20'0 0.0
2017-Nov-06 23:52N 49°23' W 123°20'0 0.0
2017-Nov-06 23:16N 49°23' W 123°20'1 3.8
2017-Nov-06 23:00N 49°23' W 123°19'2 3.2
2017-Nov-06 22:29N 49°23' W 123°16'0 0.8
2017-Nov-06 22:00N 49°23' W 123°17'1 2.0
2017-Nov-06 21:30N 49°22' W 123°18'3 5.5
2017-Nov-06 21:00N 49°20' W 123°21'  

Dump ship's entire track history